Pauline, KS (66619)

1:39 PM CDT on August 30, 2016 (GMT -0500)
Alexander Subdivision-47th Ct Area | | Change Station

Elev 988 ft 38.98 °N, 95.72 °W | Updated 7 minutes ago

Mostly Cloudy
Mostly Cloudy
82.9 °F
Feels Like 90 °F
N
5.3
Wind Variable Wind from NE

Today
High -- | Low -- °F
--% Chance of Precip.
Yesterday
High -- | Low -- °F
Precip. -- in
Pressure 30.16 in
Visibility 10.0 miles
Clouds Mostly Cloudy 3300 ft
Heat Index 90 °F
Dew Point 74 °F
Humidity 76%
Rainfall 0.00 in
Snow Depth Not available.
6:50 AM 7:55 PM
Waning Crescent, 3% visible
SPECI KFOE 301802Z 01008KT 10SM BKN033 30/23 A3016 RMK AO2 T03000228
Pressure 30.16 in
Visibility 10.0 miles
Clouds Mostly Cloudy 3300 ft
Heat Index 90 °F
Dew Point 74 °F
Humidity 76%
Rainfall 0.00 in
Snow Depth Not available.
6:50 AM 7:55 PM
Waning Crescent, 3% visible
SPECI KFOE 301802Z 01008KT 10SM BKN033 30/23 A3016 RMK AO2 T03000228

10-Day Weather Forecast

Almanac

Astronomy

Aug. 30, 2016 Rise Set
Actual Time
Civil Twilight
Nautical Twilight
Astronomical Twilight
Moon
Length of Visible Light
Length of Day
Tomorrow will be .
, % of the Moon is Illuminated

Today's Extremes

State Highs State Lows

Community

WunderPhotos

Upload Photos

1,935,874 photos uploaded!

WunderBlog® & News

Nearby

Air Quality

  Air Quality AQ Index Pollutant
Not available.

Snow Depth

Station Depth Elevation

Earthquake Activity

City Distance Mag. Time & Date
Minimum magnitude displayed is 2.5.

Coastal Water Temperatures

Place Temperature

Stations

Nearby Weather Stations

Station Location Temp. Windchill Dew Point Humidity Wind Precip. Elev Updated Type
                   

Watches & Warnings

There are currently no watches in effect.